Coalburg, Alabama
Current Conditions -  °F | °C
As of 7:53 PM on Monday 22 Dec 2014 (Local Time) from KBHM Reporting Station
Overcast Overcast  
Wind Chill: 53°   Ceiling: 800
Heat Index: 53°   Visibility: 10mi
Dew Point: 50°   Wind: 5mph
Humidity: 89%   Direction: 90°E
Pressure: 29.83"   Gusts: NA
Location:  33.606°N, 86.8244°W
Report Text: KBHM 230153Z 09004KT 10SM BKN008 OVC020 12/10 A2983 RMK AO2 RAB28E37 SLP097 P0000 T01170100
Loading
Personal Weather Stations






























Interactive Weather Map New forecast layout! Learn more

10-Day Weather Forecast

Advertisements
Track Severe Weather on mobile